sensor_id;sensor_type;location;lat;lon;timestamp;P1;durP1;ratioP1;P2;durP2;ratioP2
15466;SDS011;7834;49.452;11.056;2022-11-13T00:02:16;29.67;;;16.70;;
15466;SDS011;7834;49.452;11.056;2022-11-13T00:04:42;26.20;;;16.70;;
15466;SDS011;7834;49.452;11.056;2022-11-13T00:07:08;26.50;;;17.23;;
15466;SDS011;7834;49.452;11.056;2022-11-13T00:09:34;43.90;;;19.20;;
15466;SDS011;7834;49.452;11.056;2022-11-13T00:12:00;46.00;;;17.30;;
15466;SDS011;7834;49.452;11.056;2022-11-13T00:14:26;24.97;;;17.47;;
15466;SDS011;7834;49.452;11.056;2022-11-13T00:16:52;35.70;;;18.20;;
15466;SDS011;7834;49.452;11.056;2022-11-13T00:19:18;56.80;;;19.43;;
15466;SDS011;7834;49.452;11.056;2022-11-13T00:21:44;31.10;;;16.83;;
15466;SDS011;7834;49.452;11.056;2022-11-13T00:24:09;113.50;;;20.10;;
15466;SDS011;7834;49.452;11.056;2022-11-13T00:26:35;23.90;;;16.47;;
15466;SDS011;7834;49.452;11.056;2022-11-13T00:29:03;18.83;;;15.60;;
15466;SDS011;7834;49.452;11.056;2022-11-13T00:31:29;36.17;;;17.47;;
15466;SDS011;7834;49.452;11.056;2022-11-13T00:33:56;30.77;;;16.73;;
15466;SDS011;7834;49.452;11.056;2022-11-13T00:36:23;17.53;;;15.43;;
15466;SDS011;7834;49.452;11.056;2022-11-13T00:38:50;16.60;;;14.27;;
15466;SDS011;7834;49.452;11.056;2022-11-13T00:41:17;48.73;;;19.13;;
15466;SDS011;7834;49.452;11.056;2022-11-13T00:43:43;18.50;;;15.10;;
15466;SDS011;7834;49.452;11.056;2022-11-13T00:46:09;19.63;;;15.00;;
15466;SDS011;7834;49.452;11.056;2022-11-13T00:48:35;18.57;;;15.27;;
15466;SDS011;7834;49.452;11.056;2022-11-13T00:51:01;16.87;;;14.17;;
15466;SDS011;7834;49.452;11.056;2022-11-13T00:53:27;17.97;;;14.67;;
15466;SDS011;7834;49.452;11.056;2022-11-13T00:55:54;16.00;;;13.30;;
15466;SDS011;7834;49.452;11.056;2022-11-13T00:58:20;17.57;;;14.30;;
15466;SDS011;7834;49.452;11.056;2022-11-13T01:00:46;20.97;;;15.67;;
15466;SDS011;7834;49.452;11.056;2022-11-13T01:03:13;19.23;;;15.90;;
15466;SDS011;7834;49.452;11.056;2022-11-13T01:05:40;18.97;;;15.40;;
15466;SDS011;7834;49.452;11.056;2022-11-13T01:08:07;24.07;;;15.00;;
15466;SDS011;7834;49.452;11.056;2022-11-13T01:10:34;18.27;;;15.13;;
15466;SDS011;7834;49.452;11.056;2022-11-13T01:13:00;26.87;;;16.93;;
15466;SDS011;7834;49.452;11.056;2022-11-13T01:15:26;18.10;;;14.13;;
15466;SDS011;7834;49.452;11.056;2022-11-13T01:17:52;17.83;;;14.83;;
15466;SDS011;7834;49.452;11.056;2022-11-13T01:20:19;18.07;;;14.77;;
15466;SDS011;7834;49.452;11.056;2022-11-13T01:22:45;18.00;;;15.17;;
15466;SDS011;7834;49.452;11.056;2022-11-13T01:25:11;16.17;;;14.17;;
15466;SDS011;7834;49.452;11.056;2022-11-13T01:27:37;17.53;;;14.87;;
15466;SDS011;7834;49.452;11.056;2022-11-13T01:30:04;18.00;;;14.80;;
15466;SDS011;7834;49.452;11.056;2022-11-13T01:32:30;17.40;;;14.07;;
15466;SDS011;7834;49.452;11.056;2022-11-13T01:34:56;17.93;;;14.73;;
15466;SDS011;7834;49.452;11.056;2022-11-13T01:37:22;16.37;;;14.53;;
15466;SDS011;7834;49.452;11.056;2022-11-13T01:39:48;18.47;;;14.57;;
15466;SDS011;7834;49.452;11.056;2022-11-13T01:42:15;19.80;;;15.93;;
15466;SDS011;7834;49.452;11.056;2022-11-13T01:44:48;19.90;;;15.40;;
15466;SDS011;7834;49.452;11.056;2022-11-13T01:47:15;17.93;;;14.63;;
15466;SDS011;7834;49.452;11.056;2022-11-13T01:49:41;19.60;;;14.67;;
15466;SDS011;7834;49.452;11.056;2022-11-13T01:52:09;20.07;;;15.77;;
15466;SDS011;7834;49.452;11.056;2022-11-13T01:54:58;21.17;;;16.47;;
15466;SDS011;7834;49.452;11.056;2022-11-13T01:57:22;20.33;;;15.73;;
15466;SDS011;7834;49.452;11.056;2022-11-13T01:59:49;19.67;;;16.10;;
15466;SDS011;7834;49.452;11.056;2022-11-13T02:02:17;19.43;;;16.00;;
15466;SDS011;7834;49.452;11.056;2022-11-13T02:04:43;21.40;;;16.77;;
15466;SDS011;7834;49.452;11.056;2022-11-13T02:07:10;22.33;;;17.53;;
15466;SDS011;7834;49.452;11.056;2022-11-13T02:09:38;22.40;;;16.80;;
15466;SDS011;7834;49.452;11.056;2022-11-13T02:12:06;22.93;;;17.50;;
15466;SDS011;7834;49.452;11.056;2022-11-13T02:14:32;27.53;;;17.77;;
15466;SDS011;7834;49.452;11.056;2022-11-13T02:17:02;23.27;;;17.07;;
15466;SDS011;7834;49.452;11.056;2022-11-13T02:19:30;32.17;;;18.43;;
15466;SDS011;7834;49.452;11.056;2022-11-13T02:24:39;18.67;;;14.77;;
15466;SDS011;7834;49.452;11.056;2022-11-13T02:27:07;27.23;;;16.47;;
15466;SDS011;7834;49.452;11.056;2022-11-13T02:29:33;25.13;;;17.77;;
15466;SDS011;7834;49.452;11.056;2022-11-13T02:31:59;19.63;;;15.77;;
15466;SDS011;7834;49.452;11.056;2022-11-13T02:34:25;34.67;;;17.30;;
15466;SDS011;7834;49.452;11.056;2022-11-13T02:36:51;37.10;;;16.77;;
15466;SDS011;7834;49.452;11.056;2022-11-13T02:39:17;53.40;;;19.53;;
15466;SDS011;7834;49.452;11.056;2022-11-13T02:41:43;52.67;;;17.87;;
15466;SDS011;7834;49.452;11.056;2022-11-13T02:44:09;37.53;;;17.27;;
15466;SDS011;7834;49.452;11.056;2022-11-13T02:46:35;123.33;;;20.40;;
15466;SDS011;7834;49.452;11.056;2022-11-13T02:49:02;43.67;;;16.87;;
15466;SDS011;7834;49.452;11.056;2022-11-13T02:51:28;74.87;;;19.37;;
15466;SDS011;7834;49.452;11.056;2022-11-13T02:53:54;124.73;;;20.63;;
15466;SDS011;7834;49.452;11.056;2022-11-13T02:56:20;165.83;;;24.60;;
15466;SDS011;7834;49.452;11.056;2022-11-13T02:58:46;48.23;;;18.63;;
15466;SDS011;7834;49.452;11.056;2022-11-13T03:01:12;32.73;;;17.00;;
15466;SDS011;7834;49.452;11.056;2022-11-13T03:03:38;33.83;;;16.53;;
15466;SDS011;7834;49.452;11.056;2022-11-13T03:06:04;31.43;;;17.20;;
15466;SDS011;7834;49.452;11.056;2022-11-13T03:08:30;29.13;;;16.37;;
15466;SDS011;7834;49.452;11.056;2022-11-13T03:10:56;34.07;;;16.13;;
15466;SDS011;7834;49.452;11.056;2022-11-13T03:13:22;25.53;;;16.17;;
15466;SDS011;7834;49.452;11.056;2022-11-13T03:15:48;25.07;;;15.90;;
15466;SDS011;7834;49.452;11.056;2022-11-13T03:18:14;26.53;;;15.93;;
15466;SDS011;7834;49.452;11.056;2022-11-13T03:20:41;41.20;;;16.77;;
15466;SDS011;7834;49.452;11.056;2022-11-13T03:23:07;41.23;;;17.37;;
15466;SDS011;7834;49.452;11.056;2022-11-13T03:25:33;26.77;;;16.60;;
15466;SDS011;7834;49.452;11.056;2022-11-13T03:27:59;34.87;;;17.17;;
15466;SDS011;7834;49.452;11.056;2022-11-13T03:30:25;54.87;;;19.63;;
15466;SDS011;7834;49.452;11.056;2022-11-13T03:32:54;32.13;;;17.00;;
15466;SDS011;7834;49.452;11.056;2022-11-13T03:35:21;29.00;;;17.07;;
15466;SDS011;7834;49.452;11.056;2022-11-13T03:37:47;33.53;;;17.70;;
15466;SDS011;7834;49.452;11.056;2022-11-13T03:40:13;24.03;;;17.07;;
15466;SDS011;7834;49.452;11.056;2022-11-13T03:42:39;37.20;;;19.07;;
15466;SDS011;7834;49.452;11.056;2022-11-13T03:45:05;25.23;;;16.93;;
15466;SDS011;7834;49.452;11.056;2022-11-13T03:47:32;21.77;;;16.63;;
15466;SDS011;7834;49.452;11.056;2022-11-13T03:49:58;22.73;;;15.80;;
15466;SDS011;7834;49.452;11.056;2022-11-13T03:52:24;27.87;;;16.20;;
15466;SDS011;7834;49.452;11.056;2022-11-13T03:54:50;27.00;;;16.57;;
15466;SDS011;7834;49.452;11.056;2022-11-13T03:57:16;39.13;;;17.67;;
15466;SDS011;7834;49.452;11.056;2022-11-13T03:59:42;29.90;;;16.40;;
15466;SDS011;7834;49.452;11.056;2022-11-13T04:02:08;24.93;;;15.63;;
15466;SDS011;7834;49.452;11.056;2022-11-13T04:04:34;25.07;;;15.93;;
15466;SDS011;7834;49.452;11.056;2022-11-13T04:07:00;40.97;;;17.83;;
15466;SDS011;7834;49.452;11.056;2022-11-13T04:09:26;52.70;;;17.07;;
15466;SDS011;7834;49.452;11.056;2022-11-13T04:11:52;61.13;;;17.90;;
15466;SDS011;7834;49.452;11.056;2022-11-13T04:14:18;28.10;;;16.03;;
15466;SDS011;7834;49.452;11.056;2022-11-13T04:16:44;27.50;;;17.63;;
15466;SDS011;7834;49.452;11.056;2022-11-13T04:19:10;21.90;;;16.23;;
15466;SDS011;7834;49.452;11.056;2022-11-13T04:21:36;20.13;;;15.00;;
15466;SDS011;7834;49.452;11.056;2022-11-13T04:24:02;20.67;;;15.13;;
15466;SDS011;7834;49.452;11.056;2022-11-13T04:26:28;30.73;;;15.30;;
15466;SDS011;7834;49.452;11.056;2022-11-13T04:28:54;18.73;;;14.07;;
15466;SDS011;7834;49.452;11.056;2022-11-13T04:31:20;18.13;;;14.40;;
15466;SDS011;7834;49.452;11.056;2022-11-13T04:33:46;23.97;;;13.87;;
15466;SDS011;7834;49.452;11.056;2022-11-13T04:36:12;26.93;;;14.87;;
15466;SDS011;7834;49.452;11.056;2022-11-13T04:38:38;146.10;;;18.83;;
15466;SDS011;7834;49.452;11.056;2022-11-13T04:41:04;205.83;;;21.27;;
15466;SDS011;7834;49.452;11.056;2022-11-13T04:43:49;264.17;;;20.47;;
15466;SDS011;7834;49.452;11.056;2022-11-13T04:46:15;148.57;;;19.87;;
15466;SDS011;7834;49.452;11.056;2022-11-13T04:48:41;131.83;;;19.40;;
15466;SDS011;7834;49.452;11.056;2022-11-13T04:51:07;100.50;;;18.20;;
15466;SDS011;7834;49.452;11.056;2022-11-13T04:53:33;58.87;;;15.07;;
15466;SDS011;7834;49.452;11.056;2022-11-13T04:55:59;27.73;;;14.77;;
15466;SDS011;7834;49.452;11.056;2022-11-13T04:58:25;43.30;;;15.10;;
15466;SDS011;7834;49.452;11.056;2022-11-13T05:00:51;129.37;;;18.13;;
15466;SDS011;7834;49.452;11.056;2022-11-13T05:03:17;39.33;;;15.30;;
15466;SDS011;7834;49.452;11.056;2022-11-13T05:05:43;171.30;;;20.33;;
15466;SDS011;7834;49.452;11.056;2022-11-13T05:08:09;57.77;;;16.23;;
15466;SDS011;7834;49.452;11.056;2022-11-13T05:10:36;155.93;;;20.13;;
15466;SDS011;7834;49.452;11.056;2022-11-13T05:13:02;256.33;;;20.47;;
15466;SDS011;7834;49.452;11.056;2022-11-13T05:15:28;118.87;;;16.37;;
15466;SDS011;7834;49.452;11.056;2022-11-13T05:17:54;71.87;;;17.13;;
15466;SDS011;7834;49.452;11.056;2022-11-13T05:20:20;240.30;;;23.37;;
15466;SDS011;7834;49.452;11.056;2022-11-13T05:22:46;279.33;;;22.17;;
15466;SDS011;7834;49.452;11.056;2022-11-13T05:25:12;93.17;;;17.13;;
15466;SDS011;7834;49.452;11.056;2022-11-13T05:27:38;150.57;;;17.57;;
15466;SDS011;7834;49.452;11.056;2022-11-13T05:30:04;129.17;;;17.83;;
15466;SDS011;7834;49.452;11.056;2022-11-13T05:32:31;26.80;;;12.90;;
15466;SDS011;7834;49.452;11.056;2022-11-13T05:34:57;15.30;;;11.10;;
15466;SDS011;7834;49.452;11.056;2022-11-13T05:37:23;14.13;;;11.07;;
15466;SDS011;7834;49.452;11.056;2022-11-13T05:39:49;14.60;;;11.77;;
15466;SDS011;7834;49.452;11.056;2022-11-13T05:42:15;14.23;;;10.80;;
15466;SDS011;7834;49.452;11.056;2022-11-13T05:44:41;13.67;;;11.47;;
15466;SDS011;7834;49.452;11.056;2022-11-13T05:47:07;15.00;;;11.17;;
15466;SDS011;7834;49.452;11.056;2022-11-13T05:49:33;13.03;;;11.27;;
15466;SDS011;7834;49.452;11.056;2022-11-13T05:51:59;36.77;;;13.37;;
15466;SDS011;7834;49.452;11.056;2022-11-13T05:54:25;22.67;;;12.60;;
15466;SDS011;7834;49.452;11.056;2022-11-13T05:56:51;16.07;;;11.27;;
15466;SDS011;7834;49.452;11.056;2022-11-13T05:59:17;18.27;;;11.50;;
15466;SDS011;7834;49.452;11.056;2022-11-13T06:01:43;35.13;;;11.90;;
15466;SDS011;7834;49.452;11.056;2022-11-13T06:04:09;48.77;;;13.60;;
15466;SDS011;7834;49.452;11.056;2022-11-13T06:06:35;51.00;;;13.20;;
15466;SDS011;7834;49.452;11.056;2022-11-13T06:09:03;49.37;;;13.53;;
15466;SDS011;7834;49.452;11.056;2022-11-13T06:11:29;114.20;;;15.27;;
15466;SDS011;7834;49.452;11.056;2022-11-13T06:13:55;65.03;;;13.73;;
15466;SDS011;7834;49.452;11.056;2022-11-13T06:16:23;21.73;;;12.00;;
15466;SDS011;7834;49.452;11.056;2022-11-13T06:18:49;30.93;;;13.37;;
15466;SDS011;7834;49.452;11.056;2022-11-13T06:21:17;19.70;;;12.60;;
15466;SDS011;7834;49.452;11.056;2022-11-13T06:23:43;88.50;;;14.33;;
15466;SDS011;7834;49.452;11.056;2022-11-13T06:26:10;47.67;;;12.70;;
15466;SDS011;7834;49.452;11.056;2022-11-13T06:28:37;23.60;;;12.40;;
15466;SDS011;7834;49.452;11.056;2022-11-13T06:31:04;32.90;;;12.00;;
15466;SDS011;7834;49.452;11.056;2022-11-13T06:33:30;64.20;;;12.17;;
15466;SDS011;7834;49.452;11.056;2022-11-13T06:35:56;20.87;;;11.47;;
15466;SDS011;7834;49.452;11.056;2022-11-13T06:38:22;17.73;;;12.30;;
15466;SDS011;7834;49.452;11.056;2022-11-13T06:40:48;13.63;;;10.30;;
15466;SDS011;7834;49.452;11.056;2022-11-13T06:43:14;12.60;;;10.33;;
15466;SDS011;7834;49.452;11.056;2022-11-13T06:45:40;54.87;;;13.33;;
15466;SDS011;7834;49.452;11.056;2022-11-13T06:48:06;48.67;;;12.37;;
15466;SDS011;7834;49.452;11.056;2022-11-13T06:50:32;18.17;;;12.13;;
15466;SDS011;7834;49.452;11.056;2022-11-13T06:52:58;17.73;;;12.87;;
15466;SDS011;7834;49.452;11.056;2022-11-13T06:55:24;18.73;;;13.80;;
15466;SDS011;7834;49.452;11.056;2022-11-13T06:57:50;25.53;;;12.90;;
15466;SDS011;7834;49.452;11.056;2022-11-13T07:00:16;32.87;;;13.20;;
15466;SDS011;7834;49.452;11.056;2022-11-13T07:02:42;16.97;;;13.03;;
15466;SDS011;7834;49.452;11.056;2022-11-13T07:05:08;18.43;;;12.97;;
15466;SDS011;7834;49.452;11.056;2022-11-13T07:07:34;31.70;;;13.57;;
15466;SDS011;7834;49.452;11.056;2022-11-13T07:10:00;35.67;;;13.60;;
15466;SDS011;7834;49.452;11.056;2022-11-13T07:12:26;17.23;;;12.57;;
15466;SDS011;7834;49.452;11.056;2022-11-13T07:14:53;21.73;;;13.00;;
15466;SDS011;7834;49.452;11.056;2022-11-13T07:17:19;28.20;;;12.97;;
15466;SDS011;7834;49.452;11.056;2022-11-13T07:19:45;71.93;;;12.93;;
15466;SDS011;7834;49.452;11.056;2022-11-13T07:22:11;18.13;;;11.73;;
15466;SDS011;7834;49.452;11.056;2022-11-13T07:24:37;37.73;;;12.50;;
15466;SDS011;7834;49.452;11.056;2022-11-13T07:27:03;20.70;;;12.13;;
15466;SDS011;7834;49.452;11.056;2022-11-13T07:29:29;25.73;;;12.93;;
15466;SDS011;7834;49.452;11.056;2022-11-13T07:31:55;41.33;;;13.10;;
15466;SDS011;7834;49.452;11.056;2022-11-13T07:34:21;76.17;;;14.13;;
15466;SDS011;7834;49.452;11.056;2022-11-13T07:36:47;17.00;;;15.20;;
15466;SDS011;7834;49.452;11.056;2022-11-13T07:39:13;23.03;;;11.60;;
15466;SDS011;7834;49.452;11.056;2022-11-13T07:41:38;38.23;;;17.27;;
15466;SDS011;7834;49.452;11.056;2022-11-13T07:44:05;17.73;;;11.37;;
15466;SDS011;7834;49.452;11.056;2022-11-13T07:46:31;12.20;;;10.27;;
15466;SDS011;7834;49.452;11.056;2022-11-13T07:48:57;21.00;;;10.43;;
15466;SDS011;7834;49.452;11.056;2022-11-13T07:51:23;12.37;;;10.47;;
15466;SDS011;7834;49.452;11.056;2022-11-13T07:53:49;16.03;;;12.23;;
15466;SDS011;7834;49.452;11.056;2022-11-13T07:56:15;12.37;;;11.07;;
15466;SDS011;7834;49.452;11.056;2022-11-13T07:58:41;12.50;;;11.20;;
15466;SDS011;7834;49.452;11.056;2022-11-13T08:01:07;12.40;;;10.77;;
15466;SDS011;7834;49.452;11.056;2022-11-13T08:03:33;21.13;;;12.57;;
15466;SDS011;7834;49.452;11.056;2022-11-13T08:06:00;24.47;;;13.93;;
15466;SDS011;7834;49.452;11.056;2022-11-13T08:08:26;22.20;;;13.63;;
15466;SDS011;7834;49.452;11.056;2022-11-13T08:10:52;14.90;;;12.90;;
15466;SDS011;7834;49.452;11.056;2022-11-13T08:13:18;17.13;;;13.43;;
15466;SDS011;7834;49.452;11.056;2022-11-13T08:15:44;18.43;;;12.60;;
15466;SDS011;7834;49.452;11.056;2022-11-13T08:18:10;20.97;;;13.40;;
15466;SDS011;7834;49.452;11.056;2022-11-13T08:20:36;15.93;;;13.67;;
15466;SDS011;7834;49.452;11.056;2022-11-13T08:23:03;14.77;;;12.80;;
15466;SDS011;7834;49.452;11.056;2022-11-13T08:25:29;14.87;;;12.87;;
15466;SDS011;7834;49.452;11.056;2022-11-13T08:27:56;16.57;;;13.67;;
15466;SDS011;7834;49.452;11.056;2022-11-13T08:30:23;14.73;;;12.63;;
15466;SDS011;7834;49.452;11.056;2022-11-13T08:32:49;13.87;;;12.00;;
15466;SDS011;7834;49.452;11.056;2022-11-13T08:35:16;20.30;;;16.83;;
15466;SDS011;7834;49.452;11.056;2022-11-13T08:37:42;19.90;;;13.13;;
15466;SDS011;7834;49.452;11.056;2022-11-13T08:40:08;23.40;;;13.57;;
15466;SDS011;7834;49.452;11.056;2022-11-13T08:42:34;16.50;;;13.50;;
15466;SDS011;7834;49.452;11.056;2022-11-13T08:45:00;21.53;;;12.43;;
15466;SDS011;7834;49.452;11.056;2022-11-13T08:47:26;14.33;;;12.03;;
15466;SDS011;7834;49.452;11.056;2022-11-13T08:49:53;13.13;;;11.83;;
15466;SDS011;7834;49.452;11.056;2022-11-13T08:52:20;13.90;;;12.40;;
15466;SDS011;7834;49.452;11.056;2022-11-13T08:54:46;12.97;;;11.33;;
15466;SDS011;7834;49.452;11.056;2022-11-13T08:57:12;15.07;;;12.23;;
15466;SDS011;7834;49.452;11.056;2022-11-13T08:59:38;14.17;;;12.70;;
15466;SDS011;7834;49.452;11.056;2022-11-13T09:02:04;14.93;;;13.27;;
15466;SDS011;7834;49.452;11.056;2022-11-13T09:04:30;13.53;;;12.03;;
15466;SDS011;7834;49.452;11.056;2022-11-13T09:06:56;14.13;;;12.63;;
15466;SDS011;7834;49.452;11.056;2022-11-13T09:09:22;14.13;;;12.63;;
15466;SDS011;7834;49.452;11.056;2022-11-13T09:11:48;13.70;;;11.33;;
15466;SDS011;7834;49.452;11.056;2022-11-13T09:14:14;13.37;;;11.43;;
15466;SDS011;7834;49.452;11.056;2022-11-13T09:16:40;13.43;;;11.13;;
15466;SDS011;7834;49.452;11.056;2022-11-13T09:19:06;11.43;;;10.30;;
15466;SDS011;7834;49.452;11.056;2022-11-13T09:21:32;11.43;;;10.23;;
15466;SDS011;7834;49.452;11.056;2022-11-13T09:23:58;12.47;;;11.17;;
15466;SDS011;7834;49.452;11.056;2022-11-13T09:26:24;12.43;;;11.13;;
15466;SDS011;7834;49.452;11.056;2022-11-13T09:28:50;11.87;;;10.50;;
15466;SDS011;7834;49.452;11.056;2022-11-13T09:31:16;12.30;;;10.77;;
15466;SDS011;7834;49.452;11.056;2022-11-13T09:33:42;11.30;;;10.07;;
15466;SDS011;7834;49.452;11.056;2022-11-13T09:36:09;12.03;;;10.83;;
15466;SDS011;7834;49.452;11.056;2022-11-13T09:38:35;11.87;;;10.60;;
15466;SDS011;7834;49.452;11.056;2022-11-13T09:43:41;13.00;;;11.07;;
15466;SDS011;7834;49.452;11.056;2022-11-13T09:48:54;15.13;;;13.17;;
15466;SDS011;7834;49.452;11.056;2022-11-13T09:53:50;12.77;;;11.33;;
15466;SDS011;7834;49.452;11.056;2022-11-13T09:56:37;12.27;;;10.97;;
15466;SDS011;7834;49.452;11.056;2022-11-13T10:01:33;13.13;;;11.73;;
15466;SDS011;7834;49.452;11.056;2022-11-13T10:04:04;12.30;;;10.82;;
15466;SDS011;7834;49.452;11.056;2022-11-13T10:09:21;12.85;;;11.50;;
15466;SDS011;7834;49.452;11.056;2022-11-13T10:11:53;27.35;;;17.73;;
15466;SDS011;7834;49.452;11.056;2022-11-13T10:14:22;16.15;;;13.32;;
15466;SDS011;7834;49.452;11.056;2022-11-13T10:16:58;16.00;;;13.18;;
15466;SDS011;7834;49.452;11.056;2022-11-13T10:19:28;15.77;;;12.73;;
15466;SDS011;7834;49.452;11.056;2022-11-13T10:21:57;13.70;;;12.23;;
15466;SDS011;7834;49.452;11.056;2022-11-13T10:24:25;15.27;;;12.85;;
15466;SDS011;7834;49.452;11.056;2022-11-13T10:26:54;14.57;;;13.07;;
15466;SDS011;7834;49.452;11.056;2022-11-13T10:29:20;14.15;;;12.30;;
15466;SDS011;7834;49.452;11.056;2022-11-13T10:31:48;15.23;;;12.60;;
15466;SDS011;7834;49.452;11.056;2022-11-13T10:34:15;13.38;;;11.57;;
15466;SDS011;7834;49.452;11.056;2022-11-13T10:36:53;13.88;;;12.38;;
15466;SDS011;7834;49.452;11.056;2022-11-13T10:39:20;14.50;;;13.00;;
15466;SDS011;7834;49.452;11.056;2022-11-13T10:41:47;14.25;;;12.75;;
15466;SDS011;7834;49.452;11.056;2022-11-13T10:44:20;15.45;;;13.27;;
15466;SDS011;7834;49.452;11.056;2022-11-13T10:46:46;15.65;;;12.88;;
15466;SDS011;7834;49.452;11.056;2022-11-13T10:49:16;17.40;;;13.27;;
15466;SDS011;7834;49.452;11.056;2022-11-13T10:51:43;15.25;;;13.25;;
15466;SDS011;7834;49.452;11.056;2022-11-13T10:57:05;13.95;;;12.45;;
15466;SDS011;7834;49.452;11.056;2022-11-13T10:59:42;16.02;;;12.68;;
15466;SDS011;7834;49.452;11.056;2022-11-13T11:02:22;16.08;;;13.07;;
15466;SDS011;7834;49.452;11.056;2022-11-13T11:04:48;13.85;;;12.35;;
15466;SDS011;7834;49.452;11.056;2022-11-13T11:07:15;13.57;;;12.07;;
15466;SDS011;7834;49.452;11.056;2022-11-13T11:09:41;13.77;;;11.93;;
15466;SDS011;7834;49.452;11.056;2022-11-13T11:12:11;13.68;;;11.90;;
15466;SDS011;7834;49.452;11.056;2022-11-13T11:17:14;13.93;;;12.07;;
15466;SDS011;7834;49.452;11.056;2022-11-13T11:19:51;13.68;;;11.95;;
15466;SDS011;7834;49.452;11.056;2022-11-13T11:22:18;12.80;;;11.50;;
15466;SDS011;7834;49.452;11.056;2022-11-13T11:24:56;12.52;;;11.20;;
15466;SDS011;7834;49.452;11.056;2022-11-13T11:27:29;14.25;;;11.57;;
15466;SDS011;7834;49.452;11.056;2022-11-13T11:30:00;14.07;;;11.18;;
15466;SDS011;7834;49.452;11.056;2022-11-13T11:32:41;13.35;;;11.43;;
15466;SDS011;7834;49.452;11.056;2022-11-13T11:35:20;12.07;;;10.80;;
15466;SDS011;7834;49.452;11.056;2022-11-13T11:37:49;12.73;;;11.40;;
15466;SDS011;7834;49.452;11.056;2022-11-13T11:40:33;13.85;;;11.75;;
15466;SDS011;7834;49.452;11.056;2022-11-13T11:43:04;13.35;;;11.02;;
15466;SDS011;7834;49.452;11.056;2022-11-13T11:45:42;12.48;;;11.18;;
15466;SDS011;7834;49.452;11.056;2022-11-13T11:48:21;13.70;;;10.85;;
15466;SDS011;7834;49.452;11.056;2022-11-13T12:09:07;12.85;;;11.48;;
15466;SDS011;7834;49.452;11.056;2022-11-13T12:25:02;13.30;;;11.57;;
15466;SDS011;7834;49.452;11.056;2022-11-13T12:27:38;12.45;;;10.77;;
15466;SDS011;7834;49.452;11.056;2022-11-13T12:30:19;12.77;;;11.35;;
15466;SDS011;7834;49.452;11.056;2022-11-13T12:35:24;10.57;;;8.55;;
15466;SDS011;7834;49.452;11.056;2022-11-13T12:45:43;5.40;;;4.13;;
15466;SDS011;7834;49.452;11.056;2022-11-13T12:50:43;6.18;;;4.60;;
15466;SDS011;7834;49.452;11.056;2022-11-13T12:53:10;6.53;;;3.80;;
15466;SDS011;7834;49.452;11.056;2022-11-13T12:55:37;7.20;;;4.43;;
15466;SDS011;7834;49.452;11.056;2022-11-13T12:58:19;5.75;;;4.45;;
15466;SDS011;7834;49.452;11.056;2022-11-13T13:00:53;4.97;;;4.00;;
15466;SDS011;7834;49.452;11.056;2022-11-13T13:06:18;5.03;;;3.78;;
15466;SDS011;7834;49.452;11.056;2022-11-13T13:11:52;4.53;;;4.13;;
15466;SDS011;7834;49.452;11.056;2022-11-13T13:16:45;6.40;;;4.53;;
15466;SDS011;7834;49.452;11.056;2022-11-13T13:19:29;6.88;;;4.28;;
15466;SDS011;7834;49.452;11.056;2022-11-13T13:21:55;5.53;;;4.80;;
15466;SDS011;7834;49.452;11.056;2022-11-13T13:24:34;6.30;;;4.88;;
15466;SDS011;7834;49.452;11.056;2022-11-13T13:27:01;8.02;;;4.95;;
15466;SDS011;7834;49.452;11.056;2022-11-13T13:29:28;4.93;;;4.35;;
15466;SDS011;7834;49.452;11.056;2022-11-13T13:32:08;17.92;;;11.88;;
15466;SDS011;7834;49.452;11.056;2022-11-13T13:37:16;5.10;;;4.57;;
15466;SDS011;7834;49.452;11.056;2022-11-13T13:45:15;8.35;;;4.93;;
15466;SDS011;7834;49.452;11.056;2022-11-13T13:47:44;5.20;;;4.57;;
15466;SDS011;7834;49.452;11.056;2022-11-13T13:50:16;10.10;;;4.13;;
15466;SDS011;7834;49.452;11.056;2022-11-13T13:52:43;5.65;;;4.50;;
15466;SDS011;7834;49.452;11.056;2022-11-13T13:55:15;6.40;;;4.97;;
15466;SDS011;7834;49.452;11.056;2022-11-13T13:57:41;5.80;;;4.63;;
15466;SDS011;7834;49.452;11.056;2022-11-13T14:00:11;6.47;;;4.80;;
15466;SDS011;7834;49.452;11.056;2022-11-13T14:02:43;6.47;;;4.82;;
15466;SDS011;7834;49.452;11.056;2022-11-13T14:05:43;7.70;;;4.70;;
15466;SDS011;7834;49.452;11.056;2022-11-13T14:08:02;18.98;;;11.40;;
15466;SDS011;7834;49.452;11.056;2022-11-13T14:10:31;6.18;;;5.00;;
15466;SDS011;7834;49.452;11.056;2022-11-13T14:12:58;5.57;;;4.45;;
15466;SDS011;7834;49.452;11.056;2022-11-13T14:15:25;4.93;;;4.43;;
15466;SDS011;7834;49.452;11.056;2022-11-13T14:18:03;5.82;;;4.78;;
15466;SDS011;7834;49.452;11.056;2022-11-13T14:20:33;6.45;;;5.00;;
15466;SDS011;7834;49.452;11.056;2022-11-13T14:23:01;6.60;;;5.40;;
15466;SDS011;7834;49.452;11.056;2022-11-13T14:25:27;6.10;;;5.00;;
15466;SDS011;7834;49.452;11.056;2022-11-13T14:27:53;6.85;;;5.20;;
15466;SDS011;7834;49.452;11.056;2022-11-13T14:30:27;5.68;;;5.13;;
15466;SDS011;7834;49.452;11.056;2022-11-13T14:32:54;6.47;;;4.93;;
15466;SDS011;7834;49.452;11.056;2022-11-13T14:35:21;6.60;;;5.10;;
15466;SDS011;7834;49.452;11.056;2022-11-13T14:37:48;5.80;;;5.05;;
15466;SDS011;7834;49.452;11.056;2022-11-13T14:42:45;6.25;;;5.25;;
15466;SDS011;7834;49.452;11.056;2022-11-13T14:45:22;5.75;;;5.10;;
15466;SDS011;7834;49.452;11.056;2022-11-13T14:50:34;6.63;;;5.32;;
15466;SDS011;7834;49.452;11.056;2022-11-13T14:53:02;14.70;;;11.07;;
15466;SDS011;7834;49.452;11.056;2022-11-13T14:55:29;5.53;;;5.03;;
15466;SDS011;7834;49.452;11.056;2022-11-13T14:57:56;109.45;;;70.78;;
15466;SDS011;7834;49.452;11.056;2022-11-13T15:00:26;6.47;;;5.50;;
15466;SDS011;7834;49.452;11.056;2022-11-13T15:02:52;7.45;;;5.32;;
15466;SDS011;7834;49.452;11.056;2022-11-13T15:05:18;6.63;;;5.53;;
15466;SDS011;7834;49.452;11.056;2022-11-13T15:07:44;6.97;;;5.47;;
15466;SDS011;7834;49.452;11.056;2022-11-13T15:10:11;6.85;;;5.40;;
15466;SDS011;7834;49.452;11.056;2022-11-13T15:12:39;7.53;;;5.40;;
15466;SDS011;7834;49.452;11.056;2022-11-13T15:15:05;7.65;;;5.85;;
15466;SDS011;7834;49.452;11.056;2022-11-13T15:17:31;8.80;;;5.80;;
15466;SDS011;7834;49.452;11.056;2022-11-13T15:19:57;7.35;;;6.00;;
15466;SDS011;7834;49.452;11.056;2022-11-13T15:22:23;10.18;;;6.28;;
15466;SDS011;7834;49.452;11.056;2022-11-13T15:24:49;8.82;;;5.57;;
15466;SDS011;7834;49.452;11.056;2022-11-13T15:27:15;8.27;;;5.95;;
15466;SDS011;7834;49.452;11.056;2022-11-13T15:29:42;6.78;;;5.82;;
15466;SDS011;7834;49.452;11.056;2022-11-13T15:32:11;7.70;;;6.20;;
15466;SDS011;7834;49.452;11.056;2022-11-13T15:34:37;6.72;;;5.60;;
15466;SDS011;7834;49.452;11.056;2022-11-13T15:37:13;8.82;;;6.53;;
15466;SDS011;7834;49.452;11.056;2022-11-13T15:39:40;6.82;;;5.68;;
15466;SDS011;7834;49.452;11.056;2022-11-13T15:42:09;8.48;;;6.32;;
15466;SDS011;7834;49.452;11.056;2022-11-13T15:44:36;10.52;;;6.53;;
15466;SDS011;7834;49.452;11.056;2022-11-13T15:47:02;8.10;;;6.57;;
15466;SDS011;7834;49.452;11.056;2022-11-13T15:49:28;9.38;;;6.47;;
15466;SDS011;7834;49.452;11.056;2022-11-13T15:51:54;8.95;;;6.30;;
15466;SDS011;7834;49.452;11.056;2022-11-13T15:56:46;8.02;;;6.15;;
15466;SDS011;7834;49.452;11.056;2022-11-13T15:59:12;9.15;;;6.90;;